createdAt,value
2023-01-13T00:00:51.893Z,99978.84
2023-01-13T00:03:15.458Z,99980.69
2023-01-13T00:05:39.191Z,99979.81
2023-01-13T00:08:04.892Z,99984.19
2023-01-13T00:10:28.429Z,99985.47
2023-01-13T00:12:54.605Z,99990.56
2023-01-13T00:15:18.271Z,99993.66
2023-01-13T00:17:41.884Z,99987.69
2023-01-13T00:20:07.002Z,99996.22
2023-01-13T00:22:30.613Z,99994.22
2023-01-13T00:24:54.115Z,99990.41
2023-01-13T00:27:17.749Z,99988.41
2023-01-13T00:29:42.637Z,99984.88
2023-01-13T00:32:06.418Z,99986.88
2023-01-13T00:34:30.385Z,99984.91
2023-01-13T00:36:53.944Z,99983.34
2023-01-13T00:39:17.471Z,99979.53
2023-01-13T00:41:54.935Z,99982.91
2023-01-13T00:44:18.639Z,99983.63
2023-01-13T00:46:43.591Z,99975.88
2023-01-13T00:49:07.262Z,99982.50
2023-01-13T00:51:30.764Z,99977.81
2023-01-13T00:53:54.343Z,99974.16
2023-01-13T00:56:34.109Z,99976.81
2023-01-13T00:59:04.108Z,99973.44
2023-01-13T01:01:27.947Z,99978.66
2023-01-13T01:03:55.052Z,99970.47
2023-01-13T01:06:20.865Z,99983.63
2023-01-13T01:08:45.411Z,99971.88
2023-01-13T01:11:11.418Z,99977.00
2023-01-13T01:13:36.136Z,99978.94
2023-01-13T01:16:00.275Z,99986.19
2023-01-13T01:18:24.108Z,99980.09
2023-01-13T01:20:49.081Z,99978.97
2023-01-13T01:23:12.686Z,99984.06
2023-01-13T01:25:36.225Z,99981.66
2023-01-13T01:28:00.611Z,99976.13
2023-01-13T01:30:24.205Z,99978.94
2023-01-13T01:32:47.880Z,99983.34
2023-01-13T01:35:11.675Z,99979.09
2023-01-13T01:37:36.727Z,99967.09
2023-01-13T01:40:00.317Z,99977.53
2023-01-13T01:42:42.057Z,99975.00
2023-01-13T01:45:16.960Z,99974.84
2023-01-13T01:47:42.021Z,99970.47
2023-01-13T01:50:06.538Z,99970.03
2023-01-13T01:52:37.331Z,99971.47
2023-01-13T01:55:05.590Z,99961.09
2023-01-13T01:57:34.258Z,99972.00
2023-01-13T02:00:01.090Z,99970.19
2023-01-13T02:02:25.397Z,99964.41
2023-01-13T02:04:56.053Z,99962.81
2023-01-13T02:07:22.506Z,99962.00
2023-01-13T02:09:47.462Z,99961.56
2023-01-13T02:12:29.189Z,99961.72
2023-01-13T02:14:52.805Z,99959.25
2023-01-13T02:17:36.898Z,99954.63
2023-01-13T02:20:36.087Z,99945.16
2023-01-13T02:24:06.507Z,99948.13
2023-01-13T02:27:22.641Z,99954.94
2023-01-13T02:30:19.924Z,99955.75
2023-01-13T02:32:57.125Z,99950.16
2023-01-13T02:35:28.955Z,99953.50
2023-01-13T02:37:53.050Z,99946.72
2023-01-13T02:40:24.445Z,99938.53
2023-01-13T02:43:12.760Z,99936.81
2023-01-13T02:45:43.225Z,99937.97
2023-01-13T02:48:10.259Z,99936.53
2023-01-13T02:50:40.365Z,99935.53
2023-01-13T02:53:10.140Z,99926.06
2023-01-13T02:55:38.973Z,99931.16
2023-01-13T02:58:04.598Z,99927.38
2023-01-13T03:00:29.210Z,99935.19
2023-01-13T03:02:54.173Z,99926.78
2023-01-13T03:05:18.985Z,99940.22
2023-01-13T03:08:20.596Z,99916.78
2023-01-13T03:11:00.931Z,99913.81
2023-01-13T03:13:43.972Z,99911.50
2023-01-13T03:16:19.514Z,99917.63
2023-01-13T03:18:52.289Z,99918.88
2023-01-13T03:21:21.712Z,99915.34
2023-01-13T03:23:52.404Z,99908.78
2023-01-13T03:26:23.360Z,99916.25
2023-01-13T03:28:55.605Z,99913.06
2023-01-13T03:31:25.480Z,99916.63
2023-01-13T03:33:57.015Z,99909.59
2023-01-13T03:36:25.828Z,99905.47
2023-01-13T03:38:54.871Z,99907.47
2023-01-13T03:41:24.817Z,99900.63
2023-01-13T03:44:14.581Z,99912.41
2023-01-13T03:46:44.882Z,99901.91
2023-01-13T03:49:15.216Z,99914.09
2023-01-13T03:51:41.840Z,99901.19
2023-01-13T03:54:10.685Z,99911.94
2023-01-13T03:56:41.452Z,99913.97
2023-01-13T03:59:08.552Z,99906.56
2023-01-13T04:01:43.641Z,99908.53
2023-01-13T04:04:13.813Z,99908.16
2023-01-13T04:06:43.856Z,99895.84
2023-01-13T04:09:16.034Z,99903.41
2023-01-13T04:11:45.539Z,99913.91
2023-01-13T04:14:11.485Z,99910.03
2023-01-13T04:16:37.580Z,99912.72
2023-01-13T04:19:01.234Z,99911.47
2023-01-13T04:21:26.530Z,99902.50
2023-01-13T04:23:51.487Z,99910.78
2023-01-13T04:26:15.089Z,99902.56
2023-01-13T04:28:40.704Z,99904.09
2023-01-13T04:31:04.372Z,99908.78
2023-01-13T04:33:28.287Z,99910.28
2023-01-13T04:35:52.632Z,99907.84
2023-01-13T04:38:20.830Z,99901.66
2023-01-13T04:40:45.301Z,99912.53
2023-01-13T04:43:09.485Z,99909.94
2023-01-13T04:45:33.446Z,99899.53
2023-01-13T04:47:56.985Z,99905.78
2023-01-13T04:50:21.046Z,99912.81
2023-01-13T04:52:44.566Z,99916.84
2023-01-13T04:55:11.417Z,99921.31
2023-01-13T04:57:35.303Z,99911.19
2023-01-13T04:59:58.868Z,99917.13
2023-01-13T05:02:22.526Z,99919.94
2023-01-13T05:04:46.187Z,99933.06
2023-01-13T05:07:09.710Z,99923.75
2023-01-13T05:09:33.269Z,99935.19
2023-01-13T05:12:14.821Z,99940.22
2023-01-13T05:14:55.726Z,99943.09
2023-01-13T05:17:22.965Z,99948.28
2023-01-13T05:19:46.482Z,99956.75
2023-01-13T05:22:27.399Z,99946.91
2023-01-13T05:25:08.310Z,99949.03
2023-01-13T05:27:33.957Z,99956.50
2023-01-13T05:29:57.854Z,99961.03
2023-01-13T05:32:21.474Z,99956.94
2023-01-13T05:34:44.997Z,99964.00
2023-01-13T05:37:11.072Z,99956.38
2023-01-13T05:39:55.152Z,99972.91
2023-01-13T05:42:35.981Z,99975.84
2023-01-13T05:45:00.960Z,99972.19
2023-01-13T05:47:24.514Z,99980.03
2023-01-13T05:49:48.114Z,99991.06
2023-01-13T05:52:11.635Z,99998.84
2023-01-13T05:54:35.177Z,100001.56
2023-01-13T05:56:58.672Z,100009.44
2023-01-13T05:59:22.476Z,100004.16
2023-01-13T06:01:47.389Z,100011.97
2023-01-13T06:04:10.998Z,100003.41
2023-01-13T06:06:34.583Z,100002.53
2023-01-13T06:08:58.139Z,100002.69
2023-01-13T06:11:21.657Z,99991.94
2023-01-13T06:13:45.220Z,99996.88
2023-01-13T06:16:09.275Z,99969.34
2023-01-13T06:18:34.325Z,99976.81
2023-01-13T06:20:58.056Z,99984.31
2023-01-13T06:23:21.757Z,99983.22
2023-01-13T06:25:53.544Z,99965.69
2023-01-13T06:28:17.290Z,99961.16
2023-01-13T06:30:45.210Z,99968.25
2023-01-13T06:33:13.887Z,99977.28
2023-01-13T06:35:39.879Z,99992.50
2023-01-13T06:38:07.018Z,99997.88
2023-01-13T06:40:31.193Z,99996.22
2023-01-13T06:43:15.957Z,99991.13
2023-01-13T06:45:40.174Z,99983.59
2023-01-13T06:48:03.896Z,99970.75
2023-01-13T06:50:27.851Z,99966.94
2023-01-13T06:52:52.749Z,99941.34
2023-01-13T06:55:16.517Z,99943.47
2023-01-13T06:57:50.598Z,99960.00
2023-01-13T07:00:16.455Z,99979.25
2023-01-13T07:02:40.023Z,99964.97
2023-01-13T07:05:03.712Z,99974.88
2023-01-13T07:07:28.708Z,99974.16
2023-01-13T07:09:53.685Z,99985.44
2023-01-13T07:12:17.276Z,99992.13
2023-01-13T07:14:58.195Z,99986.28
2023-01-13T07:17:25.576Z,99968.78
2023-01-13T07:19:49.138Z,99925.28
2023-01-13T07:22:15.240Z,99965.09
2023-01-13T07:24:38.772Z,99976.13
2023-01-13T07:27:03.710Z,99957.22
2023-01-13T07:29:27.220Z,99955.53
2023-01-13T07:31:51.018Z,99987.28
2023-01-13T07:34:14.634Z,99979.50
2023-01-13T07:36:39.257Z,99975.00
2023-01-13T07:39:02.892Z,99957.78
2023-01-13T07:41:43.737Z,99965.41
2023-01-13T07:44:10.882Z,99958.47
2023-01-13T07:46:35.245Z,99974.44
2023-01-13T07:48:58.819Z,99982.06
2023-01-13T07:51:22.380Z,99983.34
2023-01-13T07:53:46.019Z,99981.66
2023-01-13T07:56:10.485Z,99979.09
2023-01-13T07:58:35.284Z,99977.28
2023-01-13T08:01:00.376Z,99981.94
2023-01-13T08:03:24.435Z,99982.50
2023-01-13T08:05:48.891Z,99995.78
2023-01-13T08:08:13.107Z,100002.81
2023-01-13T08:10:37.520Z,100002.84
2023-01-13T08:13:20.051Z,100007.22
2023-01-13T08:15:43.816Z,100009.75
2023-01-13T08:18:08.780Z,100019.59
2023-01-13T08:20:32.386Z,100021.34
2023-01-13T08:22:58.820Z,100017.94
2023-01-13T08:25:22.741Z,100026.41
2023-01-13T08:27:46.323Z,100020.63
2023-01-13T08:30:11.757Z,100015.69
2023-01-13T08:32:35.265Z,99994.81
2023-01-13T08:35:00.249Z,100023.31
2023-01-13T08:37:23.760Z,100026.97
2023-01-13T08:39:47.286Z,100027.56
2023-01-13T08:42:10.801Z,100039.00
2023-01-13T08:44:34.582Z,100029.69
2023-01-13T08:46:58.996Z,99999.31
2023-01-13T08:49:23.108Z,100022.34
2023-01-13T08:51:48.361Z,100027.44
2023-01-13T08:54:12.326Z,100046.59
2023-01-13T08:56:35.927Z,100046.91
2023-01-13T08:58:59.584Z,100042.66
2023-01-13T09:01:24.516Z,100045.91
2023-01-13T09:03:48.363Z,100052.25
2023-01-13T09:06:11.901Z,100032.50
2023-01-13T09:08:36.890Z,99991.38
2023-01-13T09:11:00.670Z,100010.88
2023-01-13T09:13:23.258Z,100002.72
2023-01-13T09:15:47.523Z,99973.59
2023-01-13T09:18:11.500Z,99986.59
2023-01-13T09:20:35.174Z,100003.69
2023-01-13T09:22:58.891Z,100028.69
2023-01-13T09:25:24.045Z,100021.63
2023-01-13T09:27:47.632Z,100025.31
2023-01-13T09:30:12.735Z,100033.31
2023-01-13T09:32:38.489Z,100037.44
2023-01-13T09:35:01.147Z,100045.50
2023-01-13T09:37:24.747Z,100044.94
2023-01-13T09:39:48.427Z,100042.53
2023-01-13T09:42:47.875Z,100036.16
2023-01-13T09:45:16.976Z,100025.00
2023-01-13T09:47:46.832Z,100017.41
2023-01-13T09:50:25.874Z,100020.22
2023-01-13T09:52:49.921Z,100015.41
2023-01-13T09:55:17.915Z,100023.53
2023-01-13T09:57:43.413Z,100023.28
2023-01-13T10:00:14.079Z,100018.63
2023-01-13T10:02:52.701Z,100034.19
2023-01-13T10:05:24.235Z,100045.63
2023-01-13T10:07:53.806Z,100040.41
2023-01-13T10:10:25.318Z,100034.91
2023-01-13T10:13:10.171Z,100039.44
2023-01-13T10:15:33.977Z,100051.56
2023-01-13T10:18:08.315Z,100050.03
2023-01-13T10:20:41.397Z,100042.25
2023-01-13T10:23:18.341Z,100028.13
2023-01-13T10:25:54.257Z,100035.63
2023-01-13T10:28:19.877Z,100041.25
2023-01-13T10:30:45.546Z,100034.31
2023-01-13T10:33:15.026Z,100030.09
2023-01-13T10:35:58.032Z,100035.03
2023-01-13T10:38:25.078Z,100040.53
2023-01-13T10:40:53.957Z,100051.03
2023-01-13T10:43:18.905Z,100052.72
2023-01-13T10:45:42.768Z,100047.19
2023-01-13T10:48:11.537Z,100029.81
2023-01-13T10:50:38.174Z,100034.06
2023-01-13T10:53:04.339Z,100039.97
2023-01-13T10:55:30.529Z,100039.00
2023-01-13T10:57:54.164Z,100040.53
2023-01-13T11:00:29.348Z,100039.97
2023-01-13T11:03:15.199Z,100030.94
2023-01-13T11:05:38.843Z,100037.16
2023-01-13T11:08:02.366Z,100035.19
2023-01-13T11:10:28.758Z,100042.97
2023-01-13T11:13:00.571Z,100038.03
2023-01-13T11:15:38.689Z,100041.28
2023-01-13T11:18:09.704Z,100029.97
2023-01-13T11:20:38.284Z,100041.69
2023-01-13T11:23:10.674Z,100037.75
2023-01-13T11:25:43.156Z,100028.97
2023-01-13T11:28:19.591Z,100023.63
2023-01-13T11:30:51.045Z,100024.03
2023-01-13T11:33:32.212Z,100027.13
2023-01-13T11:36:06.556Z,100034.03
2023-01-13T11:38:37.415Z,100033.06
2023-01-13T11:41:10.225Z,100030.38
2023-01-13T11:43:39.092Z,100029.81
2023-01-13T11:46:04.181Z,100036.84
2023-01-13T11:48:32.247Z,100031.78
2023-01-13T11:51:04.049Z,100038.69
2023-01-13T11:53:49.117Z,100030.94
2023-01-13T11:56:32.693Z,100034.78
2023-01-13T11:59:13.630Z,100034.34
2023-01-13T12:02:15.862Z,100035.03
2023-01-13T12:04:50.673Z,100033.47
2023-01-13T12:07:23.136Z,100036.63
2023-01-13T12:10:04.224Z,100031.78
2023-01-13T12:12:43.280Z,100035.75
2023-01-13T12:15:57.725Z,100039.97
2023-01-13T12:18:57.005Z,100030.81
2023-01-13T12:21:22.714Z,100037.72
2023-01-13T12:23:56.946Z,100034.34
2023-01-13T12:26:20.868Z,100032.09
2023-01-13T12:28:50.924Z,100053.41
2023-01-13T12:31:17.018Z,100039.16
2023-01-13T12:34:00.680Z,100040.56
2023-01-13T12:36:34.163Z,100032.06
2023-01-13T12:39:01.862Z,100036.03
2023-01-13T12:42:01.395Z,100039.56
2023-01-13T12:44:24.015Z,100035.59
2023-01-13T12:46:56.100Z,100042.38
2023-01-13T12:49:27.607Z,100045.63
2023-01-13T12:52:20.753Z,100041.25
2023-01-13T12:55:16.025Z,100038.31
2023-01-13T12:57:40.359Z,100051.88
2023-01-13T13:00:18.814Z,100048.91
2023-01-13T13:02:43.949Z,100042.81
2023-01-13T13:05:44.661Z,100053.69
2023-01-13T13:08:21.627Z,100051.28
2023-01-13T13:11:01.869Z,100055.94
2023-01-13T13:13:45.747Z,100054.13
2023-01-13T13:16:56.184Z,100065.72
2023-01-13T13:19:47.332Z,100065.28
2023-01-13T13:22:48.936Z,100070.50
2023-01-13T13:25:31.041Z,100074.47
2023-01-13T13:28:19.669Z,100070.78
2023-01-13T13:30:55.056Z,100087.88
2023-01-13T13:33:39.614Z,100086.75
2023-01-13T13:36:19.529Z,100079.25
2023-01-13T13:39:22.035Z,100085.75
2023-01-13T13:42:09.345Z,100090.56
2023-01-13T13:44:58.281Z,100079.72
2023-01-13T13:47:22.278Z,100084.94
2023-01-13T13:49:53.787Z,100090.16
2023-01-13T13:52:22.871Z,100079.56
2023-01-13T13:54:51.973Z,100080.97
2023-01-13T13:57:21.684Z,100090.03
2023-01-13T13:59:45.325Z,100087.47
2023-01-13T14:02:21.691Z,100084.09
2023-01-13T14:04:45.439Z,100105.38
2023-01-13T14:07:20.659Z,100097.63
2023-01-13T14:09:49.752Z,100106.09
2023-01-13T14:12:20.055Z,100099.59
2023-01-13T14:14:45.706Z,100110.50
2023-01-13T14:17:21.481Z,100106.66
2023-01-13T14:19:47.787Z,100107.81
2023-01-13T14:22:17.926Z,100103.88
2023-01-13T14:24:55.379Z,100099.19
2023-01-13T14:27:20.449Z,100110.19
2023-01-13T14:29:44.327Z,100119.53
2023-01-13T14:32:09.206Z,100113.72
2023-01-13T14:34:34.406Z,100116.13
2023-01-13T14:36:58.033Z,100110.63
2023-01-13T14:39:27.120Z,100116.53
2023-01-13T14:41:53.319Z,100124.44
2023-01-13T14:44:25.446Z,100118.81
2023-01-13T14:46:49.175Z,100117.25
2023-01-13T14:49:25.996Z,100119.50
2023-01-13T14:51:49.939Z,100118.66
2023-01-13T14:54:48.844Z,100113.72
2023-01-13T14:57:27.559Z,100119.53
2023-01-13T14:59:58.897Z,100108.38
2023-01-13T15:02:44.446Z,100117.63
2023-01-13T15:05:42.738Z,100123.34
2023-01-13T15:08:34.716Z,100113.88
2023-01-13T15:11:00.973Z,100113.72
2023-01-13T15:13:35.819Z,100118.53
2023-01-13T15:16:03.227Z,100124.72
2023-01-13T15:18:26.995Z,100122.75
2023-01-13T15:20:52.071Z,100136.75
2023-01-13T15:23:15.640Z,100125.81
2023-01-13T15:25:42.149Z,100143.19
2023-01-13T15:28:07.554Z,100136.56
2023-01-13T15:30:33.336Z,100133.75
2023-01-13T15:32:59.927Z,100132.63
2023-01-13T15:35:25.408Z,100138.28
2023-01-13T15:37:50.131Z,100142.09
2023-01-13T15:40:18.325Z,100147.72
2023-01-13T15:42:59.415Z,100145.03
2023-01-13T15:45:40.147Z,100150.00
2023-01-13T15:48:05.894Z,100135.91
2023-01-13T15:50:29.424Z,100143.06
2023-01-13T15:52:53.201Z,100141.38
2023-01-13T15:55:16.876Z,100138.78
2023-01-13T15:57:47.577Z,100139.44
2023-01-13T16:00:18.005Z,100134.56
2023-01-13T16:02:41.671Z,100133.50
2023-01-13T16:05:07.293Z,100137.94
2023-01-13T16:07:30.965Z,100148.47
2023-01-13T16:09:54.715Z,100151.53
2023-01-13T16:12:18.340Z,100150.59
2023-01-13T16:14:41.969Z,100148.63
2023-01-13T16:17:15.769Z,100149.75
2023-01-13T16:19:39.367Z,100156.75
2023-01-13T16:22:04.300Z,100158.31
2023-01-13T16:24:27.873Z,100164.75
2023-01-13T16:26:51.389Z,100167.88
2023-01-13T16:29:14.981Z,100172.19
2023-01-13T16:31:38.735Z,100184.78
2023-01-13T16:34:04.669Z,100180.84
2023-01-13T16:36:30.205Z,100179.59
2023-01-13T16:38:55.665Z,100180.09
2023-01-13T16:41:19.369Z,100187.97
2023-01-13T16:43:43.214Z,100196.34
2023-01-13T16:46:25.915Z,100197.38
2023-01-13T16:48:50.034Z,100195.59
2023-01-13T16:51:13.777Z,100198.28
2023-01-13T16:53:37.421Z,100204.59
2023-01-13T16:56:02.357Z,100209.47
2023-01-13T16:58:25.981Z,100210.09
2023-01-13T17:00:49.787Z,100207.41
2023-01-13T17:03:13.584Z,100214.72
2023-01-13T17:05:39.618Z,100210.38
2023-01-13T17:08:03.291Z,100213.22
2023-01-13T17:10:27.079Z,100225.81
2023-01-13T17:12:52.516Z,100231.81
2023-01-13T17:15:18.387Z,100219.22
2023-01-13T17:17:43.891Z,100230.09
2023-01-13T17:20:09.305Z,100230.47
2023-01-13T17:22:32.875Z,100240.81
2023-01-13T17:24:56.497Z,100243.25
2023-01-13T17:27:21.286Z,100242.41
2023-01-13T17:29:46.245Z,100244.28
2023-01-13T17:32:11.012Z,100251.69
2023-01-13T17:34:34.541Z,100248.22
2023-01-13T17:36:58.305Z,100247.38
2023-01-13T17:39:24.679Z,100263.81
2023-01-13T17:41:49.713Z,100257.38
2023-01-13T17:44:15.359Z,100270.97
2023-01-13T17:46:40.854Z,100270.00
2023-01-13T17:49:04.428Z,100266.38
2023-01-13T17:51:28.105Z,100269.97
2023-01-13T17:53:51.686Z,100259.53
2023-01-13T17:56:17.177Z,100258.06
2023-01-13T17:58:41.887Z,100263.63
2023-01-13T18:01:10.304Z,100263.84
2023-01-13T18:03:35.519Z,100273.34
2023-01-13T18:06:04.939Z,100273.13
2023-01-13T18:08:28.558Z,100282.66
2023-01-13T18:10:54.748Z,100277.03
2023-01-13T18:13:18.228Z,100287.91
2023-01-13T18:15:41.885Z,100281.50
2023-01-13T18:18:05.576Z,100280.13
2023-01-13T18:20:48.145Z,100278.34
2023-01-13T18:23:35.333Z,100286.94
2023-01-13T18:26:16.141Z,100287.00
2023-01-13T18:28:39.849Z,100287.97
2023-01-13T18:31:03.449Z,100287.19
2023-01-13T18:33:27.304Z,100296.59
2023-01-13T18:35:52.449Z,100295.94
2023-01-13T18:38:16.500Z,100305.69
2023-01-13T18:40:40.165Z,100286.56
2023-01-13T18:43:02.804Z,100305.66
2023-01-13T18:45:29.016Z,100307.47
2023-01-13T18:47:53.481Z,100313.28
2023-01-13T18:50:18.128Z,100316.84
2023-01-13T18:52:43.265Z,100310.22
2023-01-13T18:55:07.412Z,100314.31
2023-01-13T18:57:31.097Z,100307.63
2023-01-13T18:59:56.613Z,100317.50
2023-01-13T19:02:22.210Z,100319.97
2023-01-13T19:04:46.063Z,100322.38
2023-01-13T19:07:12.325Z,100325.69
2023-01-13T19:09:37.235Z,100326.53
2023-01-13T19:12:01.241Z,100322.97
2023-01-13T19:14:37.278Z,100328.81
2023-01-13T19:17:01.523Z,100337.34
2023-01-13T19:19:25.076Z,100337.72
2023-01-13T19:21:48.659Z,100341.13
2023-01-13T19:24:12.177Z,100335.53
2023-01-13T19:26:37.214Z,100340.00
2023-01-13T19:29:00.760Z,100339.25
2023-01-13T19:31:24.383Z,100339.53
2023-01-13T19:33:48.040Z,100359.22
2023-01-13T19:36:12.764Z,100358.63
2023-01-13T19:38:38.308Z,100353.47
2023-01-13T19:41:07.001Z,100361.94
2023-01-13T19:43:50.409Z,100353.03
2023-01-13T19:46:15.068Z,100363.00
2023-01-13T19:48:39.529Z,100375.84
2023-01-13T19:51:03.545Z,100370.75
2023-01-13T19:53:27.191Z,100373.34
2023-01-13T19:55:51.797Z,100383.28
2023-01-13T19:58:15.440Z,100375.94
2023-01-13T20:00:47.009Z,100388.28
2023-01-13T20:03:10.837Z,100386.19
2023-01-13T20:05:34.454Z,100397.63
2023-01-13T20:07:58.103Z,100402.03
2023-01-13T20:10:24.176Z,100391.19
2023-01-13T20:12:47.820Z,100390.22
2023-01-13T20:15:12.452Z,100396.31
2023-01-13T20:17:37.607Z,100402.50
2023-01-13T20:20:01.129Z,100419.09
2023-01-13T20:22:24.814Z,100412.28
2023-01-13T20:24:48.528Z,100410.09
2023-01-13T20:27:12.148Z,100422.97
2023-01-13T20:29:36.260Z,100434.91
2023-01-13T20:32:00.037Z,100423.84
2023-01-13T20:34:25.657Z,100426.16
2023-01-13T20:36:50.576Z,100435.88
2023-01-13T20:39:17.429Z,100429.44
2023-01-13T20:41:58.514Z,100435.25
2023-01-13T20:44:22.139Z,100437.81
2023-01-13T20:46:46.649Z,100436.13
2023-01-13T20:49:12.801Z,100441.50
2023-01-13T20:51:38.319Z,100451.09
2023-01-13T20:54:01.968Z,100447.09
2023-01-13T20:56:25.534Z,100444.41
2023-01-13T20:58:49.122Z,100440.63
2023-01-13T21:01:12.899Z,100455.84
2023-01-13T21:03:36.552Z,100440.00
2023-01-13T21:06:00.149Z,100444.66
2023-01-13T21:08:25.226Z,100460.50
2023-01-13T21:10:48.780Z,100447.09
2023-01-13T21:13:29.896Z,100452.69
2023-01-13T21:15:55.392Z,100466.56
2023-01-13T21:18:36.191Z,100472.06
2023-01-13T21:21:12.372Z,100470.22
2023-01-13T21:23:37.443Z,100463.16
2023-01-13T21:26:02.224Z,100467.91
2023-01-13T21:28:25.830Z,100475.19
2023-01-13T21:30:50.088Z,100483.00
2023-01-13T21:33:14.821Z,100485.75
2023-01-13T21:35:41.425Z,100482.59
2023-01-13T21:38:05.004Z,100484.47
2023-01-13T21:40:29.935Z,100474.31
2023-01-13T21:43:10.817Z,100481.41
2023-01-13T21:45:51.967Z,100486.41
2023-01-13T21:48:15.693Z,100484.41
2023-01-13T21:50:39.811Z,100479.44
2023-01-13T21:53:03.468Z,100483.22
2023-01-13T21:55:29.398Z,100491.25
2023-01-13T21:57:56.288Z,100490.03
2023-01-13T22:00:23.076Z,100492.84
2023-01-13T22:02:47.339Z,100490.75
2023-01-13T22:05:13.578Z,100495.41
2023-01-13T22:07:39.063Z,100488.22
2023-01-13T22:10:03.413Z,100494.53
2023-01-13T22:12:29.710Z,100497.66
2023-01-13T22:14:53.571Z,100501.47
2023-01-13T22:17:17.620Z,100496.81
2023-01-13T22:19:42.348Z,100504.09
2023-01-13T22:22:07.420Z,100506.75
2023-01-13T22:24:30.936Z,100511.66
2023-01-13T22:26:54.549Z,100518.47
2023-01-13T22:29:19.712Z,100521.78
2023-01-13T22:31:43.479Z,100528.69
2023-01-13T22:34:07.328Z,100537.72
2023-01-13T22:36:31.030Z,100534.09
2023-01-13T22:38:56.577Z,100535.72
2023-01-13T22:41:20.204Z,100546.63
2023-01-13T22:43:43.763Z,100540.25
2023-01-13T22:46:11.719Z,100544.19
2023-01-13T22:48:35.719Z,100543.34
2023-01-13T22:51:05.448Z,100540.81
2023-01-13T22:53:28.952Z,100549.75
2023-01-13T22:55:56.588Z,100549.94
2023-01-13T22:58:20.136Z,100563.88
2023-01-13T23:00:43.778Z,100559.00
2023-01-13T23:03:08.728Z,100570.72
2023-01-13T23:05:32.355Z,100568.28
2023-01-13T23:07:55.967Z,100571.69
2023-01-13T23:10:19.780Z,100572.41
2023-01-13T23:12:43.305Z,100574.78
2023-01-13T23:15:08.185Z,100577.75
2023-01-13T23:17:31.826Z,100577.53
2023-01-13T23:19:56.855Z,100580.53
2023-01-13T23:22:20.455Z,100579.75
2023-01-13T23:24:44.056Z,100581.16
2023-01-13T23:27:07.603Z,100586.94
2023-01-13T23:29:31.201Z,100582.69
2023-01-13T23:31:54.745Z,100589.47
2023-01-13T23:34:18.364Z,100587.91
2023-01-13T23:36:44.492Z,100586.97
2023-01-13T23:39:08.153Z,100583.72
2023-01-13T23:41:31.679Z,100586.53
2023-01-13T23:43:58.847Z,100588.53
2023-01-13T23:46:23.033Z,100587.03
2023-01-13T23:48:46.659Z,100588.94
2023-01-13T23:51:14.018Z,100589.16
2023-01-13T23:53:41.246Z,100593.22
2023-01-13T23:56:08.492Z,100601.03
2023-01-13T23:58:33.355Z,100604.31
